createdAt,value
2022-09-27T00:00:31.272Z,78.10
2022-09-27T00:02:59.818Z,78.10
2022-09-27T00:05:28.060Z,78.00
2022-09-27T00:07:56.292Z,78.10
2022-09-27T00:10:25.898Z,78.20
2022-09-27T00:12:54.568Z,78.10
2022-09-27T00:15:22.861Z,78.20
2022-09-27T00:17:52.065Z,78.20
2022-09-27T00:20:20.858Z,78.20
2022-09-27T00:22:49.236Z,78.20
2022-09-27T00:25:17.663Z,78.30
2022-09-27T00:27:47.219Z,78.30
2022-09-27T00:30:15.438Z,78.30
2022-09-27T00:32:43.659Z,78.30
2022-09-27T00:35:11.858Z,78.30
2022-09-27T00:37:40.079Z,78.30
2022-09-27T00:40:09.206Z,78.40
2022-09-27T00:42:37.458Z,78.40
2022-09-27T00:45:16.419Z,78.40
2022-09-27T00:47:48.203Z,78.50
2022-09-27T00:50:27.866Z,78.40
2022-09-27T00:53:04.803Z,78.50
2022-09-27T00:55:35.559Z,78.60
2022-09-27T00:58:04.711Z,78.60
2022-09-27T01:00:34.370Z,78.70
2022-09-27T01:03:02.815Z,78.80
2022-09-27T01:05:31.127Z,78.90
2022-09-27T01:08:01.088Z,78.90
2022-09-27T01:10:31.882Z,79.00
2022-09-27T01:13:03.388Z,79.00
2022-09-27T01:15:35.960Z,79.00
2022-09-27T01:18:18.986Z,79.00
2022-09-27T01:21:44.736Z,79.10
2022-09-27T01:25:01.340Z,79.10
2022-09-27T01:28:02.391Z,79.10
2022-09-27T01:30:32.625Z,79.10
2022-09-27T01:33:19.128Z,79.20
2022-09-27T01:35:55.253Z,79.20
2022-09-27T01:38:25.991Z,79.10
2022-09-27T01:40:57.604Z,80.10
2022-09-27T01:43:31.181Z,79.20
2022-09-27T01:46:02.765Z,79.20
2022-09-27T01:48:49.876Z,79.20
2022-09-27T01:51:23.641Z,79.20
2022-09-27T01:53:54.098Z,79.20
2022-09-27T01:56:26.957Z,79.20
2022-09-27T01:59:03.899Z,79.10
2022-09-27T02:01:34.853Z,79.10
2022-09-27T02:04:03.534Z,79.10
2022-09-27T02:06:51.968Z,79.00
2022-09-27T02:09:28.830Z,79.00
2022-09-27T02:12:21.877Z,79.00
2022-09-27T02:14:54.120Z,79.00
2022-09-27T02:17:27.350Z,79.00
2022-09-27T02:19:57.772Z,79.20
2022-09-27T02:22:35.048Z,79.20
2022-09-27T02:25:06.125Z,79.20
2022-09-27T02:27:36.826Z,79.30
2022-09-27T02:30:11.822Z,79.30
2022-09-27T02:32:42.800Z,79.30
2022-09-27T02:35:14.237Z,79.30
2022-09-27T02:37:42.425Z,79.30
2022-09-27T02:40:11.163Z,79.30
2022-09-27T02:42:39.484Z,79.40
2022-09-27T02:45:08.913Z,79.40
2022-09-27T02:48:04.729Z,79.50
2022-09-27T02:50:50.626Z,79.50
2022-09-27T02:53:44.311Z,79.50
2022-09-27T02:56:35.055Z,79.60
2022-09-27T02:59:29.774Z,79.50
2022-09-27T03:02:13.540Z,79.60
2022-09-27T03:04:59.084Z,79.60
2022-09-27T03:07:28.664Z,79.60
2022-09-27T03:09:56.852Z,79.70
2022-09-27T03:12:26.976Z,79.70
2022-09-27T03:14:56.208Z,80.70
2022-09-27T03:17:44.407Z,79.80
2022-09-27T03:20:31.507Z,79.80
2022-09-27T03:23:10.149Z,79.70
2022-09-27T03:25:38.315Z,79.80
2022-09-27T03:28:06.671Z,79.80
2022-09-27T03:30:35.955Z,79.80
2022-09-27T03:33:04.363Z,79.80
2022-09-27T03:35:52.765Z,79.80
2022-09-27T03:38:22.318Z,79.80
2022-09-27T03:40:50.610Z,79.80
2022-09-27T03:43:18.951Z,79.80
2022-09-27T03:45:47.853Z,79.80
2022-09-27T03:48:16.081Z,79.80
2022-09-27T03:50:44.251Z,79.90
2022-09-27T03:53:12.426Z,80.00
2022-09-27T03:55:41.962Z,79.90
2022-09-27T03:58:10.409Z,79.90
2022-09-27T04:00:39.148Z,79.80
2022-09-27T04:03:07.323Z,79.80
2022-09-27T04:05:53.798Z,79.70
2022-09-27T04:08:30.165Z,79.70
2022-09-27T04:10:59.734Z,79.70
2022-09-27T04:13:28.183Z,79.80
2022-09-27T04:15:57.870Z,80.80
2022-09-27T04:19:01.609Z,79.90
2022-09-27T04:21:47.770Z,79.80
2022-09-27T04:24:17.035Z,79.80
2022-09-27T04:26:57.927Z,80.70
2022-09-27T04:29:28.297Z,79.70
2022-09-27T04:32:01.067Z,79.70
2022-09-27T04:35:09.694Z,79.70
2022-09-27T04:37:38.343Z,79.70
2022-09-27T04:40:07.273Z,79.70
2022-09-27T04:42:38.063Z,79.60
2022-09-27T04:45:07.792Z,79.60
2022-09-27T04:47:36.059Z,79.70
2022-09-27T04:50:04.901Z,79.60
2022-09-27T04:52:33.177Z,79.50
2022-09-27T04:55:01.392Z,79.50
2022-09-27T04:57:31.806Z,79.40
2022-09-27T05:00:01.568Z,79.40
2022-09-27T05:02:30.456Z,79.40
2022-09-27T05:05:18.680Z,79.40
2022-09-27T05:07:47.017Z,79.40
2022-09-27T05:10:27.015Z,79.30
2022-09-27T05:12:55.266Z,79.30
2022-09-27T05:15:24.966Z,79.40
2022-09-27T05:18:13.425Z,79.40
2022-09-27T05:21:16.776Z,79.40
2022-09-27T05:23:48.146Z,79.50
2022-09-27T05:26:16.833Z,79.40
2022-09-27T05:28:47.341Z,79.30
2022-09-27T05:31:17.257Z,79.30
2022-09-27T05:33:45.770Z,79.30
2022-09-27T05:36:42.841Z,80.40
2022-09-27T05:39:11.205Z,79.50
2022-09-27T05:41:41.233Z,79.50
2022-09-27T05:44:09.598Z,79.60
2022-09-27T05:46:44.171Z,79.60
2022-09-27T05:49:12.343Z,79.60
2022-09-27T05:51:40.586Z,79.50
2022-09-27T05:54:08.756Z,79.50
2022-09-27T05:56:37.641Z,79.50
2022-09-27T05:59:34.961Z,79.50
2022-09-27T06:02:22.583Z,79.50
2022-09-27T06:05:09.908Z,79.40
2022-09-27T06:07:59.786Z,79.60
2022-09-27T06:10:33.491Z,79.60
2022-09-27T06:13:03.510Z,79.50
2022-09-27T06:15:39.234Z,79.50
2022-09-27T06:18:11.186Z,79.50
2022-09-27T06:20:41.504Z,79.30
2022-09-27T06:23:10.658Z,79.30
2022-09-27T06:25:39.213Z,79.20
2022-09-27T06:28:21.307Z,79.10
2022-09-27T06:30:51.802Z,79.10
2022-09-27T06:33:44.404Z,79.00
2022-09-27T06:36:12.602Z,79.00
2022-09-27T06:38:42.314Z,78.90
2022-09-27T06:41:17.394Z,78.90
2022-09-27T06:44:05.940Z,78.80
2022-09-27T06:47:06.051Z,78.80
2022-09-27T06:49:54.164Z,78.70
2022-09-27T06:52:22.315Z,78.60
2022-09-27T06:54:50.478Z,78.60
2022-09-27T06:57:39.077Z,78.60
2022-09-27T07:00:24.681Z,78.50
2022-09-27T07:03:08.272Z,78.50
2022-09-27T07:05:59.128Z,78.40
2022-09-27T07:08:42.162Z,78.40
2022-09-27T07:11:10.501Z,78.60
2022-09-27T07:13:42.862Z,78.60
2022-09-27T07:16:13.145Z,78.50
2022-09-27T07:18:42.399Z,78.50
2022-09-27T07:21:12.982Z,78.40
2022-09-27T07:23:41.204Z,78.40
2022-09-27T07:26:11.334Z,78.40
2022-09-27T07:28:41.545Z,78.30
2022-09-27T07:31:10.747Z,78.30
2022-09-27T07:33:42.958Z,78.30
2022-09-27T07:36:14.032Z,78.20
2022-09-27T07:38:44.498Z,78.10
2022-09-27T07:41:14.069Z,78.10
2022-09-27T07:43:44.085Z,78.10
2022-09-27T07:46:13.544Z,78.00
2022-09-27T07:48:56.301Z,78.00
2022-09-27T07:51:44.397Z,78.00
2022-09-27T07:54:31.597Z,78.00
2022-09-27T07:57:23.053Z,78.10
2022-09-27T07:59:53.693Z,78.10
2022-09-27T08:02:23.128Z,78.00
2022-09-27T08:04:53.186Z,77.90
2022-09-27T08:07:23.131Z,77.80
2022-09-27T08:09:54.354Z,77.60
2022-09-27T08:12:23.125Z,77.60
2022-09-27T08:14:52.087Z,77.50
2022-09-27T08:17:20.475Z,77.50
2022-09-27T08:20:07.671Z,77.30
2022-09-27T08:23:15.729Z,77.30
2022-09-27T08:25:45.426Z,77.30
2022-09-27T08:28:33.716Z,77.20
2022-09-27T08:31:13.037Z,77.10
2022-09-27T08:33:41.801Z,77.00
2022-09-27T08:36:14.374Z,77.00
2022-09-27T08:38:43.974Z,76.90
2022-09-27T08:41:14.554Z,76.90
2022-09-27T08:43:46.145Z,76.90
2022-09-27T08:46:24.228Z,76.80
2022-09-27T08:48:54.598Z,76.80
2022-09-27T08:51:25.631Z,76.70
2022-09-27T08:53:56.922Z,76.70
2022-09-27T08:56:26.159Z,76.60
2022-09-27T08:58:56.672Z,76.60
2022-09-27T09:01:30.774Z,76.60
2022-09-27T09:04:11.669Z,76.60
2022-09-27T09:06:42.565Z,76.50
2022-09-27T09:09:19.142Z,76.40
2022-09-27T09:12:21.265Z,76.40
2022-09-27T09:15:09.756Z,76.30
2022-09-27T09:17:57.262Z,76.50
2022-09-27T09:20:53.863Z,76.90
2022-09-27T09:23:36.746Z,76.90
2022-09-27T09:26:10.857Z,76.80
2022-09-27T09:28:46.920Z,76.60
2022-09-27T09:31:17.427Z,76.60
2022-09-27T09:33:47.247Z,76.60
2022-09-27T09:36:20.524Z,76.60
2022-09-27T09:38:50.095Z,76.60
2022-09-27T09:41:23.203Z,76.50
2022-09-27T09:43:52.798Z,76.50
2022-09-27T09:46:23.217Z,76.50
2022-09-27T09:48:53.122Z,76.50
2022-09-27T09:51:23.190Z,76.50
2022-09-27T09:53:55.200Z,77.50
2022-09-27T09:56:32.782Z,76.60
2022-09-27T09:59:02.571Z,76.80
2022-09-27T10:01:42.559Z,76.80
2022-09-27T10:04:11.800Z,76.90
2022-09-27T10:06:40.394Z,76.80
2022-09-27T10:09:10.681Z,76.80
2022-09-27T10:11:45.512Z,76.80
2022-09-27T10:14:21.170Z,76.60
2022-09-27T10:16:57.461Z,76.60
2022-09-27T10:19:29.726Z,76.40
2022-09-27T10:22:01.189Z,76.60
2022-09-27T10:24:29.658Z,76.50
2022-09-27T10:27:11.341Z,76.50
2022-09-27T10:29:41.314Z,76.50
2022-09-27T10:32:22.739Z,76.50
2022-09-27T10:34:52.297Z,76.50
2022-09-27T10:37:22.355Z,76.40
2022-09-27T10:40:26.159Z,76.50
2022-09-27T10:42:56.808Z,76.60
2022-09-27T10:45:31.668Z,76.50
2022-09-27T10:48:20.288Z,77.10
2022-09-27T10:50:59.065Z,76.60
2022-09-27T10:53:37.821Z,76.60
2022-09-27T10:56:20.420Z,76.50
2022-09-27T10:58:49.974Z,76.50
2022-09-27T11:01:20.256Z,76.60
2022-09-27T11:04:22.181Z,76.60
2022-09-27T11:06:50.457Z,77.10
2022-09-27T11:09:24.142Z,78.00
2022-09-27T11:12:06.757Z,79.90
2022-09-27T11:14:36.419Z,81.00
2022-09-27T11:17:11.429Z,81.60
2022-09-27T11:19:55.454Z,82.30
2022-09-27T11:22:41.796Z,82.70
2022-09-27T11:25:19.218Z,83.00
2022-09-27T11:28:00.634Z,83.40
2022-09-27T11:30:36.459Z,83.80
2022-09-27T11:33:50.747Z,83.30
2022-09-27T11:36:25.515Z,82.50
2022-09-27T11:39:02.495Z,82.40
2022-09-27T11:41:41.256Z,82.60
2022-09-27T11:44:22.874Z,82.80
2022-09-27T11:46:57.168Z,82.60
2022-09-27T11:50:07.141Z,82.60
2022-09-27T11:52:41.928Z,82.50
2022-09-27T11:55:20.451Z,82.30
2022-09-27T11:57:49.969Z,82.10
2022-09-27T12:00:20.514Z,82.10
2022-09-27T12:03:31.660Z,82.30
2022-09-27T12:06:07.936Z,82.40
2022-09-27T12:08:47.996Z,82.50
2022-09-27T12:11:19.405Z,82.50
2022-09-27T12:13:48.890Z,83.50
2022-09-27T12:16:18.543Z,82.50
2022-09-27T12:18:51.529Z,82.40
2022-09-27T12:21:36.373Z,82.50
2022-09-27T12:24:04.711Z,82.40
2022-09-27T12:26:41.104Z,82.20
2022-09-27T12:29:13.905Z,82.10
2022-09-27T12:31:43.644Z,82.00
2022-09-27T12:34:19.935Z,82.00
2022-09-27T12:36:52.729Z,81.90
2022-09-27T12:39:23.703Z,81.70
2022-09-27T12:42:02.206Z,81.70
2022-09-27T12:44:50.581Z,81.60
2022-09-27T12:47:40.215Z,81.70
2022-09-27T12:50:23.913Z,81.60
2022-09-27T12:52:53.413Z,81.50
2022-09-27T12:55:59.658Z,81.40
2022-09-27T12:58:59.553Z,81.40
2022-09-27T13:01:40.714Z,81.40
2022-09-27T13:04:31.158Z,81.30
2022-09-27T13:07:19.446Z,81.20
2022-09-27T13:10:13.469Z,81.20
2022-09-27T13:12:42.066Z,81.20
2022-09-27T13:15:15.963Z,80.90
2022-09-27T13:17:55.819Z,80.90
2022-09-27T13:20:48.927Z,80.90
2022-09-27T13:23:52.510Z,80.80
2022-09-27T13:26:25.100Z,80.70
2022-09-27T13:29:02.092Z,80.50
2022-09-27T13:32:03.004Z,80.10
2022-09-27T13:34:42.435Z,80.00
2022-09-27T13:37:44.490Z,80.10
2022-09-27T13:40:24.033Z,80.00
2022-09-27T13:43:28.767Z,79.30
2022-09-27T13:46:02.279Z,79.30
2022-09-27T13:48:39.157Z,79.50
2022-09-27T13:51:19.022Z,79.50
2022-09-27T13:53:57.639Z,79.30
2022-09-27T13:56:52.803Z,78.90
2022-09-27T13:59:25.995Z,79.20
2022-09-27T14:02:20.651Z,79.30
2022-09-27T14:04:51.445Z,79.10
2022-09-27T14:07:22.381Z,78.80
2022-09-27T14:09:54.677Z,78.80
2022-09-27T14:12:29.510Z,78.90
2022-09-27T14:14:58.080Z,78.90
2022-09-27T14:17:26.849Z,78.80
2022-09-27T14:19:56.052Z,78.80
2022-09-27T14:22:25.141Z,78.70
2022-09-27T14:24:56.284Z,78.60
2022-09-27T14:27:39.385Z,78.50
2022-09-27T14:30:24.617Z,78.40
2022-09-27T14:33:28.655Z,78.60
2022-09-27T14:36:14.836Z,78.60
2022-09-27T14:38:43.430Z,78.50
2022-09-27T14:41:20.045Z,78.60
2022-09-27T14:43:50.644Z,79.40
2022-09-27T14:46:28.817Z,78.50
2022-09-27T14:48:56.920Z,78.50
2022-09-27T14:51:28.615Z,78.40
2022-09-27T14:53:58.919Z,78.40
2022-09-27T14:56:28.651Z,78.40
2022-09-27T14:59:02.470Z,78.30
2022-09-27T15:01:30.943Z,78.30
2022-09-27T15:04:05.059Z,78.20
2022-09-27T15:06:33.193Z,78.20
2022-09-27T15:09:01.357Z,78.10
2022-09-27T15:11:32.220Z,78.10
2022-09-27T15:14:03.278Z,78.20
2022-09-27T15:16:31.817Z,78.40
2022-09-27T15:19:00.530Z,78.40
2022-09-27T15:21:30.427Z,78.40
2022-09-27T15:23:58.845Z,78.40
2022-09-27T15:26:29.859Z,78.40
2022-09-27T15:28:57.979Z,78.40
2022-09-27T15:31:31.604Z,78.40
2022-09-27T15:33:59.758Z,78.40
2022-09-27T15:36:52.762Z,78.40
2022-09-27T15:39:21.781Z,78.40
2022-09-27T15:42:02.260Z,78.40
2022-09-27T15:44:45.395Z,78.40
2022-09-27T15:47:51.808Z,78.20
2022-09-27T15:50:39.649Z,78.00
2022-09-27T15:53:07.733Z,78.20
2022-09-27T15:55:37.688Z,78.20
2022-09-27T15:58:08.211Z,78.30
2022-09-27T16:00:37.152Z,78.40
2022-09-27T16:03:06.708Z,78.40
2022-09-27T16:05:34.746Z,78.30
2022-09-27T16:08:03.050Z,78.30
2022-09-27T16:10:33.948Z,78.40
2022-09-27T16:13:02.052Z,78.50
2022-09-27T16:15:30.119Z,78.50
2022-09-27T16:17:58.250Z,78.50
2022-09-27T16:20:27.998Z,78.40
2022-09-27T16:22:56.195Z,78.50
2022-09-27T16:25:24.403Z,78.50
2022-09-27T16:27:52.797Z,78.40
2022-09-27T16:30:21.715Z,78.30
2022-09-27T16:32:50.066Z,78.40
2022-09-27T16:35:18.897Z,78.20
2022-09-27T16:37:48.320Z,78.10
2022-09-27T16:40:17.996Z,78.00
2022-09-27T16:42:46.762Z,77.90
2022-09-27T16:45:19.134Z,77.80
2022-09-27T16:47:48.152Z,77.70
2022-09-27T16:50:33.803Z,77.60
2022-09-27T16:53:05.211Z,77.70
2022-09-27T16:55:33.799Z,77.60
2022-09-27T16:58:03.894Z,77.60
2022-09-27T17:00:33.230Z,77.50
2022-09-27T17:03:01.441Z,77.50
2022-09-27T17:05:29.457Z,77.40
2022-09-27T17:08:05.466Z,77.30
2022-09-27T17:10:34.984Z,77.40
2022-09-27T17:13:03.337Z,77.50
2022-09-27T17:15:31.745Z,77.50
2022-09-27T17:17:59.877Z,77.60
2022-09-27T17:20:28.345Z,77.60
2022-09-27T17:22:56.938Z,77.60
2022-09-27T17:25:26.706Z,77.60
2022-09-27T17:27:54.845Z,77.60
2022-09-27T17:30:23.435Z,77.60
2022-09-27T17:32:51.550Z,77.60
2022-09-27T17:35:19.598Z,77.20
2022-09-27T17:37:47.918Z,77.60
2022-09-27T17:40:16.787Z,77.60
2022-09-27T17:42:46.438Z,77.60
2022-09-27T17:45:14.579Z,77.60
2022-09-27T17:48:00.136Z,77.70
2022-09-27T17:50:28.844Z,78.10
2022-09-27T17:52:59.192Z,78.10
2022-09-27T17:55:27.537Z,78.20
2022-09-27T17:57:57.310Z,78.20
2022-09-27T18:00:25.365Z,78.20
2022-09-27T18:02:53.782Z,78.30
2022-09-27T18:05:22.379Z,78.20
2022-09-27T18:07:50.608Z,78.10
2022-09-27T18:10:18.795Z,78.10
2022-09-27T18:12:46.848Z,77.90
2022-09-27T18:15:21.730Z,78.00
2022-09-27T18:17:55.793Z,78.00
2022-09-27T18:20:26.020Z,78.10
2022-09-27T18:22:54.572Z,78.10
2022-09-27T18:25:25.285Z,78.20
2022-09-27T18:27:56.249Z,78.10
2022-09-27T18:30:26.044Z,77.90
2022-09-27T18:32:54.257Z,77.80
2022-09-27T18:35:24.323Z,77.80
2022-09-27T18:37:52.505Z,77.80
2022-09-27T18:40:38.135Z,77.70
2022-09-27T18:43:08.640Z,77.70
2022-09-27T18:45:38.529Z,77.60
2022-09-27T18:48:06.814Z,77.60
2022-09-27T18:50:37.978Z,77.60
2022-09-27T18:53:06.038Z,77.60
2022-09-27T18:55:37.189Z,77.60
2022-09-27T18:58:05.250Z,77.60
2022-09-27T19:00:33.428Z,77.60
2022-09-27T19:03:02.899Z,77.50
2022-09-27T19:05:30.986Z,77.60
2022-09-27T19:07:59.046Z,77.60
2022-09-27T19:10:27.222Z,77.80
2022-09-27T19:12:56.916Z,77.70
2022-09-27T19:15:25.613Z,77.80
2022-09-27T19:17:53.694Z,77.80
2022-09-27T19:20:23.106Z,77.80
2022-09-27T19:22:51.194Z,77.80
2022-09-27T19:25:19.275Z,77.90
2022-09-27T19:27:47.395Z,78.10
2022-09-27T19:30:15.704Z,78.00
2022-09-27T19:32:43.891Z,78.00
2022-09-27T19:35:12.441Z,78.10
2022-09-27T19:37:41.900Z,78.20
2022-09-27T19:40:10.333Z,78.20
2022-09-27T19:42:38.390Z,78.60
2022-09-27T19:45:11.416Z,78.60
2022-09-27T19:47:39.904Z,78.50
2022-09-27T19:50:09.024Z,78.40
2022-09-27T19:52:37.076Z,78.50
2022-09-27T19:55:07.683Z,78.50
2022-09-27T19:57:35.735Z,78.50
2022-09-27T20:00:03.974Z,78.50
2022-09-27T20:02:32.877Z,78.50
2022-09-27T20:05:01.062Z,78.60
2022-09-27T20:07:29.087Z,78.70
2022-09-27T20:09:57.147Z,78.70
2022-09-27T20:12:26.933Z,78.80
2022-09-27T20:14:55.050Z,78.90
2022-09-27T20:17:23.068Z,78.90
2022-09-27T20:19:51.113Z,78.80
2022-09-27T20:22:19.158Z,78.80
2022-09-27T20:24:47.301Z,78.80
2022-09-27T20:27:15.338Z,78.80
2022-09-27T20:29:44.806Z,79.00
2022-09-27T20:32:27.419Z,78.80
2022-09-27T20:34:56.065Z,78.90
2022-09-27T20:37:24.232Z,78.70
2022-09-27T20:39:54.142Z,78.70
2022-09-27T20:42:22.189Z,78.90
2022-09-27T20:44:54.397Z,78.90
2022-09-27T20:47:22.988Z,78.80
2022-09-27T20:49:51.066Z,78.90
2022-09-27T20:52:19.568Z,78.80
2022-09-27T20:54:47.685Z,78.70
2022-09-27T20:57:15.929Z,78.70
2022-09-27T20:59:44.088Z,78.80
2022-09-27T21:02:13.617Z,78.80
2022-09-27T21:04:41.812Z,78.80
2022-09-27T21:07:09.881Z,78.90
2022-09-27T21:09:38.736Z,78.90
2022-09-27T21:12:06.934Z,79.10
2022-09-27T21:14:35.418Z,79.00
2022-09-27T21:17:03.470Z,79.00
2022-09-27T21:19:34.905Z,79.00
2022-09-27T21:22:02.967Z,78.90
2022-09-27T21:24:30.990Z,78.80
2022-09-27T21:27:00.327Z,78.90
2022-09-27T21:29:28.434Z,78.80
2022-09-27T21:31:56.550Z,78.90
2022-09-27T21:34:24.663Z,79.00
2022-09-27T21:36:54.064Z,79.10
2022-09-27T21:39:22.172Z,79.10
2022-09-27T21:41:50.234Z,79.20
2022-09-27T21:44:18.327Z,79.20
2022-09-27T21:46:46.513Z,79.20
2022-09-27T21:49:14.684Z,79.30
2022-09-27T21:51:44.527Z,79.30
2022-09-27T21:54:15.320Z,79.40
2022-09-27T21:56:44.107Z,79.40
2022-09-27T21:59:13.090Z,79.50
2022-09-27T22:01:41.682Z,79.50
2022-09-27T22:04:09.730Z,79.60
2022-09-27T22:06:38.597Z,79.70
2022-09-27T22:09:07.775Z,79.80
2022-09-27T22:11:38.671Z,79.90
2022-09-27T22:14:07.167Z,80.10
2022-09-27T22:16:35.330Z,80.10
2022-09-27T22:19:03.613Z,80.20
2022-09-27T22:21:33.567Z,80.30
2022-09-27T22:24:07.228Z,80.30
2022-09-27T22:26:38.065Z,80.40
2022-09-27T22:29:06.255Z,80.40
2022-09-27T22:31:34.504Z,80.30
2022-09-27T22:34:03.479Z,80.50
2022-09-27T22:36:31.714Z,80.40
2022-09-27T22:38:59.798Z,80.40
2022-09-27T22:41:29.374Z,80.50
2022-09-27T22:43:58.881Z,80.50
2022-09-27T22:46:27.107Z,80.50
2022-09-27T22:48:55.715Z,80.50
2022-09-27T22:51:23.765Z,80.50
2022-09-27T22:53:51.797Z,80.50
2022-09-27T22:56:20.866Z,80.40
2022-09-27T22:58:49.319Z,80.50
2022-09-27T23:01:19.711Z,80.50
2022-09-27T23:03:47.961Z,80.50
2022-09-27T23:06:16.310Z,80.50
2022-09-27T23:08:44.437Z,80.40
2022-09-27T23:11:13.998Z,80.50
2022-09-27T23:13:43.007Z,80.50
2022-09-27T23:16:12.530Z,80.50
2022-09-27T23:18:42.236Z,80.60
2022-09-27T23:21:11.454Z,80.60
2022-09-27T23:23:41.693Z,80.60
2022-09-27T23:26:10.709Z,80.60
2022-09-27T23:28:38.764Z,80.60
2022-09-27T23:31:08.260Z,80.60
2022-09-27T23:33:36.672Z,80.70
2022-09-27T23:36:06.254Z,80.70
2022-09-27T23:38:34.474Z,80.70
2022-09-27T23:41:02.591Z,80.70
2022-09-27T23:43:30.728Z,80.70
2022-09-27T23:45:58.772Z,80.70
2022-09-27T23:48:26.865Z,80.70
2022-09-27T23:50:54.917Z,80.70
2022-09-27T23:53:24.334Z,80.80
2022-09-27T23:56:02.251Z,80.80
2022-09-27T23:58:33.076Z,80.80
